Grizzly Air Cargo 5352


PANC
Ted Stevens Anchorage International Airport
Anchorage, Alaska, US
PACV
Merle K Smith Airport
Cordova, Alaska, US

Activity Log

Date Flight Route Aircraft Duration
No Flights Yet

Route Details

Aircraft Information
Primary: Saab 340AF
Backup: Not Available
Route Data
Distance: 151nm
Sched. Duration: 0h 80m
Avg. Duration: 0h 00m (-80m)
Times Flown: 0
Recm'd Route: TURNA7 TED J133 JOH
Planned Altitude: 17,000ft
Origin Wx: PANC 061153Z 10SM FEW047 M03/M09 A2968 RMK AO2 SLP054 4/018 T10331089 10000 21039 56007 $
Dest. Wx: PACV 061153Z 26009G20KT 10SM FEW027 SCT070 BKN090 01/M11 A2960 RMK AO2 SLP023 4/010 60001 70004 T00111106 10017 21006 55000
Notes:

Financial History
Total Freight: 0lbs
Average Load: 0lbs/flt
Fuel Used: 0lbs
Avg. Fuel Used: 0lbs/flt
Fuel Expense: $0
Avg. Fuel Expense: $0
Avg. Fuel Cost: $0/lbs
Total Gross Income: $0
Pilot Pay: $0
Total Expenses: $0
Total Revenue: $0
Average Revenue: $0